createdAt,value
2022-09-24T00:00:29.651Z,37.47
2022-09-24T00:03:16.600Z,44.33
2022-09-24T00:05:56.676Z,42.78
2022-09-24T00:08:43.509Z,38.40
2022-09-24T00:11:30.529Z,37.00
2022-09-24T00:14:18.530Z,40.20
2022-09-24T00:16:58.633Z,31.38
2022-09-24T00:19:45.533Z,27.60
2022-09-24T00:22:25.673Z,23.00
2022-09-24T00:25:31.524Z,17.83
2022-09-24T00:28:11.754Z,14.82
2022-09-24T00:30:58.563Z,15.25
2022-09-24T00:33:38.581Z,17.30
2022-09-24T00:36:27.533Z,14.52
2022-09-24T00:39:07.575Z,15.95
2022-09-24T00:41:55.492Z,16.70
2022-09-24T00:44:47.571Z,19.70
2022-09-24T00:47:46.473Z,23.15
2022-09-24T00:50:47.503Z,24.05
2022-09-24T00:53:39.489Z,23.38
2022-09-24T00:56:28.508Z,21.73
2022-09-24T00:59:11.700Z,20.35
2022-09-24T01:02:05.523Z,19.10
2022-09-24T01:04:46.380Z,23.23
2022-09-24T01:07:33.449Z,22.38
2022-09-24T01:10:35.218Z,20.77
2022-09-24T01:13:53.489Z,18.17
2022-09-24T01:17:00.463Z,14.35
2022-09-24T01:19:47.426Z,14.05
2022-09-24T01:23:16.464Z,14.02
2022-09-24T01:26:43.416Z,18.65
2022-09-24T01:29:50.459Z,18.42
2022-09-24T01:33:06.445Z,21.10
2022-09-24T01:36:01.450Z,16.60
2022-09-24T01:38:48.503Z,19.70
2022-09-24T01:41:36.441Z,22.42
2022-09-24T01:44:25.445Z,20.20
2022-09-24T01:47:08.228Z,19.60
2022-09-24T01:49:55.429Z,17.63
2022-09-24T01:52:49.364Z,21.63
2022-09-24T01:55:40.422Z,14.00
2022-09-24T01:58:39.387Z,15.48
2022-09-24T02:01:25.559Z,11.88
2022-09-24T02:04:19.378Z,18.05
2022-09-24T02:07:16.551Z,13.65
2022-09-24T02:10:03.376Z,10.20
2022-09-24T02:12:54.343Z,10.68
2022-09-24T02:15:45.399Z,10.95
2022-09-24T02:18:30.428Z,12.63
2022-09-24T02:21:20.346Z,9.85
2022-09-24T02:24:18.336Z,9.18
2022-09-24T02:27:06.380Z,9.57
2022-09-24T02:29:53.349Z,8.48
2022-09-24T02:32:43.343Z,10.30
2022-09-24T02:35:23.477Z,9.75
2022-09-24T02:38:11.348Z,11.00
2022-09-24T02:40:51.835Z,10.23
2022-09-24T02:43:39.347Z,14.00
2022-09-24T02:46:19.507Z,10.73
2022-09-24T02:49:06.338Z,10.27
2022-09-24T02:51:47.421Z,11.70
2022-09-24T02:54:34.323Z,12.52
2022-09-24T02:57:14.640Z,9.35
2022-09-24T03:00:01.303Z,9.30
2022-09-24T03:02:41.417Z,12.68
2022-09-24T03:05:28.284Z,12.48
2022-09-24T03:26:04.605Z,17.10
2022-09-24T03:28:45.448Z,16.17
2022-09-24T03:31:32.648Z,17.10
2022-09-24T03:34:19.559Z,15.65
2022-09-24T03:36:59.715Z,16.27
2022-09-24T03:39:46.572Z,17.50
2022-09-24T03:42:33.552Z,15.77
2022-09-24T03:45:20.573Z,11.50
2022-09-24T03:48:00.660Z,15.68
2022-09-24T03:50:47.544Z,13.43
2022-09-24T03:53:34.538Z,11.70
2022-09-24T03:56:15.682Z,11.52
2022-09-24T03:59:02.530Z,18.75
2022-09-24T04:01:42.974Z,11.13
2022-09-24T04:04:29.554Z,15.32
2022-09-24T04:07:09.945Z,14.95
2022-09-24T04:09:56.523Z,14.18
2022-09-24T04:12:37.152Z,20.38
2022-09-24T04:15:24.541Z,22.45
2022-09-24T04:18:11.645Z,28.40
2022-09-24T04:20:52.543Z,19.40
2022-09-24T04:23:39.508Z,26.02
2022-09-24T04:26:21.113Z,26.85
2022-09-24T04:29:07.489Z,26.00
2022-09-24T04:31:54.567Z,25.80
2022-09-24T04:34:34.856Z,26.00
2022-09-24T04:37:21.487Z,24.77
2022-09-24T04:40:05.920Z,18.30
2022-09-24T04:42:54.530Z,16.40
2022-09-24T04:45:41.498Z,17.58
2022-09-24T04:48:28.442Z,14.23
2022-09-24T04:51:09.224Z,12.50
2022-09-24T04:53:57.484Z,9.15
2022-09-24T04:56:44.425Z,7.55
2022-09-24T04:59:24.605Z,8.93
2022-09-24T05:02:13.485Z,6.90
2022-09-24T05:04:53.561Z,9.98
2022-09-24T05:07:40.423Z,6.60
2022-09-24T05:10:27.407Z,10.40
2022-09-24T05:13:14.462Z,8.20
2022-09-24T05:16:01.507Z,10.80
2022-09-24T05:18:48.448Z,9.10
2022-09-24T05:21:28.543Z,9.68
2022-09-24T05:24:15.435Z,13.93
2022-09-24T05:27:10.979Z,14.13
2022-09-24T05:29:57.450Z,10.63
2022-09-24T05:32:44.407Z,8.35
2022-09-24T05:35:31.433Z,11.57
2022-09-24T05:38:11.497Z,11.20
2022-09-24T05:40:58.504Z,13.40
2022-09-24T05:43:45.434Z,10.38
2022-09-24T05:46:32.469Z,11.15
2022-09-24T05:49:12.527Z,7.30
2022-09-24T05:51:59.409Z,7.65
2022-09-24T05:54:46.381Z,7.18
2022-09-24T05:57:33.372Z,13.00
2022-09-24T06:00:21.415Z,8.30
2022-09-24T06:03:23.491Z,9.65
2022-09-24T06:06:10.403Z,9.30
2022-09-24T06:08:51.061Z,9.27
2022-09-24T06:11:41.424Z,10.40
2022-09-24T06:14:28.370Z,10.48
2022-09-24T06:17:08.439Z,8.05
2022-09-24T06:19:55.373Z,6.72
2022-09-24T06:22:35.444Z,8.57
2022-09-24T06:25:22.338Z,11.32
2022-09-24T06:28:14.374Z,7.95
2022-09-24T06:30:54.825Z,9.13
2022-09-24T06:33:41.364Z,9.10
2022-09-24T06:36:21.697Z,7.57
2022-09-24T06:39:08.386Z,12.10
2022-09-24T06:41:50.425Z,8.80
2022-09-24T06:44:37.352Z,8.48
2022-09-24T06:47:24.331Z,11.88
2022-09-24T06:50:04.493Z,8.73
2022-09-24T06:52:51.355Z,7.97
2022-09-24T06:55:31.395Z,13.32
2022-09-24T06:58:21.369Z,6.85
2022-09-24T07:01:03.564Z,5.05
2022-09-24T07:03:50.333Z,4.25
2022-09-24T07:06:50.327Z,4.88
2022-09-24T07:09:37.309Z,5.97
2022-09-24T07:12:24.333Z,3.10
2022-09-24T07:15:05.229Z,3.15
2022-09-24T07:17:52.301Z,3.88
2022-09-24T07:20:43.318Z,5.35
2022-09-24T07:23:23.449Z,2.60
2022-09-24T07:26:10.311Z,5.22
2022-09-24T07:28:50.418Z,8.75
2022-09-24T07:31:37.354Z,3.88
2022-09-24T07:34:17.396Z,2.63
2022-09-24T07:37:04.304Z,5.05
2022-09-24T07:39:52.285Z,5.82
2022-09-24T07:42:32.677Z,4.78
2022-09-24T07:45:19.267Z,5.60
2022-09-24T07:48:08.297Z,1.67
2022-09-24T07:50:49.767Z,4.82
2022-09-24T07:53:36.229Z,3.03
2022-09-24T07:56:23.261Z,5.80
2022-09-24T07:59:13.223Z,2.63
2022-09-24T08:01:53.939Z,5.90
2022-09-24T08:04:40.213Z,2.65
2022-09-24T08:07:27.264Z,2.42
2022-09-24T08:10:15.259Z,4.47
2022-09-24T08:12:57.075Z,2.67
2022-09-24T08:15:44.291Z,3.95
2022-09-24T08:18:31.249Z,2.85
2022-09-24T08:21:13.364Z,3.00
2022-09-24T08:24:00.432Z,3.67
2022-09-24T08:26:47.343Z,6.63
2022-09-24T08:29:27.251Z,6.63
2022-09-24T08:32:07.712Z,3.20
2022-09-24T08:34:54.228Z,2.97
2022-09-24T08:37:34.678Z,4.10
2022-09-24T08:40:31.248Z,7.68
2022-09-24T08:43:52.240Z,9.57
2022-09-24T08:47:13.265Z,7.68
2022-09-24T08:50:39.220Z,4.95
2022-09-24T08:53:45.236Z,4.18
2022-09-24T08:56:31.326Z,3.05
2022-09-24T08:59:31.176Z,2.65
2022-09-24T09:02:27.471Z,3.17
2022-09-24T09:05:38.192Z,4.18
2022-09-24T09:08:50.356Z,9.77
2022-09-24T09:11:40.213Z,9.05
2022-09-24T09:14:41.755Z,3.17
2022-09-24T09:17:38.149Z,6.78
2022-09-24T09:20:34.198Z,5.60
2022-09-24T09:23:33.286Z,6.82
2022-09-24T09:26:25.171Z,3.35
2022-09-24T09:29:06.387Z,4.18
2022-09-24T09:32:12.125Z,5.68
2022-09-24T09:34:59.163Z,2.63
2022-09-24T09:37:58.149Z,3.00
2022-09-24T09:41:00.280Z,2.90
2022-09-24T09:43:41.800Z,5.20
2022-09-24T09:46:38.206Z,6.85
2022-09-24T09:49:18.581Z,3.75
2022-09-24T09:52:10.197Z,4.40
2022-09-24T09:54:52.205Z,2.88
2022-09-24T09:57:39.166Z,4.70
2022-09-24T10:00:35.262Z,2.47
2022-09-24T10:04:09.351Z,6.78
2022-09-24T10:06:57.164Z,4.25
2022-09-24T10:09:38.371Z,1.50
2022-09-24T10:12:31.164Z,1.73
2022-09-24T10:15:22.276Z,1.83
2022-09-24T10:18:09.183Z,2.42
2022-09-24T10:20:54.618Z,4.10
2022-09-24T10:23:46.177Z,3.75
2022-09-24T10:26:33.148Z,2.08
2022-09-24T10:29:38.235Z,1.50
2022-09-24T10:32:34.121Z,3.50
2022-09-24T10:35:47.143Z,2.70
2022-09-24T10:38:31.724Z,4.85
2022-09-24T10:41:36.132Z,4.10
2022-09-24T10:44:18.244Z,3.30
2022-09-24T10:47:33.111Z,4.03
2022-09-24T10:50:30.186Z,1.70
2022-09-24T10:53:26.099Z,3.88
2022-09-24T10:56:28.119Z,2.97
2022-09-24T10:59:28.087Z,1.63
2022-09-24T11:02:27.142Z,5.70
2022-09-24T11:05:21.572Z,1.98
2022-09-24T11:08:36.093Z,2.78
2022-09-24T11:11:46.177Z,3.38
2022-09-24T11:15:21.992Z,5.00
2022-09-24T11:18:43.062Z,3.63
2022-09-24T11:26:58.102Z,3.92
2022-09-24T11:30:13.478Z,5.78
2022-09-24T11:33:52.372Z,2.13
2022-09-24T11:43:51.051Z,5.15
2022-09-24T11:47:14.078Z,6.13
2022-09-24T11:50:09.051Z,1.73
2022-09-24T11:53:04.054Z,5.03
2022-09-24T11:56:29.771Z,3.20
2022-09-24T12:04:05.090Z,1.38
2022-09-24T12:07:00.993Z,1.98
2022-09-24T12:10:04.990Z,1.30
2022-09-24T12:12:50.202Z,3.20
2022-09-24T12:15:34.027Z,8.75
2022-09-24T12:18:57.030Z,3.58
2022-09-24T12:21:48.012Z,1.25
2022-09-24T12:24:41.024Z,4.05
2022-09-24T12:27:45.012Z,4.10
2022-09-24T12:31:00.243Z,5.03
2022-09-24T12:34:09.025Z,3.38
2022-09-24T12:37:05.987Z,3.33
2022-09-24T12:39:57.728Z,2.67
2022-09-24T12:42:57.012Z,2.58
2022-09-24T12:45:37.089Z,2.78
2022-09-24T12:48:31.992Z,2.17
2022-09-24T12:51:21.010Z,3.13
2022-09-24T12:54:34.992Z,3.17
2022-09-24T12:57:27.057Z,2.65
2022-09-24T13:00:38.948Z,4.03
2022-09-24T13:03:37.109Z,6.72
2022-09-24T13:06:43.944Z,2.53
2022-09-24T13:09:42.947Z,5.32
2022-09-24T13:12:33.249Z,1.70
2022-09-24T13:15:35.056Z,3.28
2022-09-24T13:18:25.130Z,2.40
2022-09-24T13:21:17.962Z,2.35
2022-09-24T13:23:58.464Z,4.53
2022-09-24T13:26:46.899Z,3.92
2022-09-24T13:29:44.963Z,2.42
2022-09-24T13:32:35.943Z,7.93
2022-09-24T13:35:29.364Z,1.60
2022-09-24T13:38:30.919Z,5.10
2022-09-24T13:41:32.897Z,3.70
2022-09-24T13:44:29.999Z,4.28
2022-09-24T13:47:49.939Z,2.30
2022-09-24T13:50:38.894Z,3.60
2022-09-24T13:53:45.349Z,2.45
2022-09-24T13:56:32.926Z,2.55
2022-09-24T13:59:17.998Z,3.50
2022-09-24T14:02:04.926Z,3.55
2022-09-24T14:04:52.916Z,2.30
2022-09-24T14:07:39.987Z,4.72
2022-09-24T14:10:20.973Z,2.95
2022-09-24T14:13:30.953Z,2.05
2022-09-24T14:16:16.307Z,3.05
2022-09-24T14:19:12.915Z,4.28
2022-09-24T14:22:03.875Z,2.42
2022-09-24T14:24:59.886Z,3.95
2022-09-24T14:28:01.887Z,4.18
2022-09-24T14:30:55.534Z,2.97
2022-09-24T14:33:46.899Z,3.58
2022-09-24T14:36:29.318Z,4.00
2022-09-24T14:39:18.889Z,4.93
2022-09-24T14:41:59.322Z,3.22
2022-09-24T14:44:45.842Z,3.22
2022-09-24T14:47:29.086Z,2.95
2022-09-24T14:50:16.815Z,2.70
2022-09-24T14:53:04.870Z,3.58
2022-09-24T14:55:49.793Z,2.13
2022-09-24T14:58:36.847Z,2.58
2022-09-24T15:01:32.927Z,6.18
2022-09-24T15:04:29.862Z,6.63
2022-09-24T15:07:09.916Z,9.05
2022-09-24T15:10:02.969Z,2.25
2022-09-24T15:28:03.505Z,3.15
2022-09-24T15:30:44.924Z,2.60
2022-09-24T15:33:31.470Z,3.53
2022-09-24T15:36:18.487Z,4.22
2022-09-24T15:39:06.522Z,3.95
2022-09-24T15:41:47.055Z,6.70
2022-09-24T15:44:39.519Z,4.32
2022-09-24T15:47:26.567Z,4.40
2022-09-24T15:50:06.520Z,4.80
2022-09-24T15:52:51.597Z,10.27
2022-09-24T15:55:38.462Z,5.75
2022-09-24T15:58:19.744Z,7.50
2022-09-24T16:01:06.492Z,7.85
2022-09-24T16:03:46.910Z,7.95
2022-09-24T16:06:33.477Z,7.03
2022-09-24T16:09:20.499Z,10.52
2022-09-24T16:12:01.073Z,5.07
2022-09-24T16:14:47.464Z,6.85
2022-09-24T16:17:27.672Z,4.22
2022-09-24T16:20:16.458Z,6.22
2022-09-24T16:22:56.555Z,7.10
2022-09-24T16:25:43.465Z,5.43
2022-09-24T16:28:30.477Z,7.97
2022-09-24T16:31:10.862Z,6.55
2022-09-24T16:33:57.424Z,11.05
2022-09-24T16:36:38.332Z,13.60
2022-09-24T16:39:26.441Z,11.02
2022-09-24T16:42:06.795Z,11.45
2022-09-24T16:44:56.410Z,10.18
2022-09-24T16:47:43.451Z,4.18
2022-09-24T16:50:33.406Z,11.32
2022-09-24T16:53:13.759Z,6.32
2022-09-24T16:56:00.429Z,5.75
2022-09-24T16:58:57.429Z,9.60
2022-09-24T17:01:46.590Z,6.97
2022-09-24T17:04:34.259Z,5.80
2022-09-24T17:07:14.811Z,3.78
2022-09-24T17:10:19.442Z,6.88
2022-09-24T17:13:07.527Z,7.40
2022-09-24T17:15:47.650Z,2.80
2022-09-24T17:18:34.399Z,9.13
2022-09-24T17:21:18.075Z,5.90
2022-09-24T17:24:04.373Z,4.63
2022-09-24T17:26:58.406Z,3.03
2022-09-24T17:29:38.746Z,5.80
2022-09-24T17:32:25.391Z,5.20
2022-09-24T17:35:07.932Z,5.05
2022-09-24T17:37:54.380Z,9.90
2022-09-24T17:40:34.779Z,4.25
2022-09-24T17:43:21.355Z,4.10
2022-09-24T17:46:13.875Z,5.30
2022-09-24T17:48:59.561Z,4.47
2022-09-24T17:51:46.309Z,5.45
2022-09-24T17:54:33.343Z,6.13
2022-09-24T17:57:21.248Z,3.55
2022-09-24T18:00:01.348Z,9.00
2022-09-24T18:02:51.372Z,6.35
2022-09-24T18:05:31.491Z,7.70
2022-09-24T18:08:18.323Z,8.05
2022-09-24T18:11:15.316Z,9.60
2022-09-24T18:14:12.326Z,3.92
2022-09-24T18:16:52.932Z,4.32
2022-09-24T18:19:39.366Z,6.07
2022-09-24T18:22:26.336Z,4.57
2022-09-24T18:25:07.227Z,5.30
2022-09-24T18:27:54.310Z,5.07
2022-09-24T18:30:34.413Z,6.25
2022-09-24T18:33:22.325Z,4.43
2022-09-24T18:36:09.310Z,7.75
2022-09-24T18:38:49.882Z,6.28
2022-09-24T18:41:42.546Z,6.80
2022-09-24T18:44:22.714Z,7.22
2022-09-24T18:47:09.437Z,9.60
2022-09-24T18:49:56.293Z,7.53
2022-09-24T18:52:43.328Z,8.25
2022-09-24T18:55:23.666Z,6.63
2022-09-24T18:58:12.294Z,10.02
2022-09-24T19:01:04.409Z,6.25
2022-09-24T19:03:46.269Z,5.05
2022-09-24T19:06:28.134Z,7.57
2022-09-24T19:09:15.256Z,7.40
2022-09-24T19:11:56.085Z,7.40
2022-09-24T19:14:43.244Z,5.50
2022-09-24T19:17:23.936Z,5.93
2022-09-24T19:20:11.327Z,4.70
2022-09-24T19:22:59.941Z,4.55
2022-09-24T19:25:50.230Z,6.50
2022-09-24T19:28:37.382Z,5.10
2022-09-24T19:31:43.276Z,5.63
2022-09-24T19:34:23.712Z,7.80
2022-09-24T19:37:10.262Z,3.75
2022-09-24T19:39:51.007Z,4.13
2022-09-24T19:42:38.219Z,3.85
2022-09-24T19:45:18.662Z,6.60
2022-09-24T19:48:06.225Z,6.38
2022-09-24T19:50:46.625Z,6.43
2022-09-24T19:53:34.210Z,6.68
2022-09-24T19:56:23.285Z,4.95
2022-09-24T19:59:12.204Z,5.05
2022-09-24T20:01:52.700Z,5.47
2022-09-24T20:04:41.205Z,6.18
2022-09-24T20:07:28.215Z,7.85
2022-09-24T20:10:08.325Z,5.57
2022-09-24T20:12:58.194Z,5.15
2022-09-24T20:15:45.233Z,5.45
2022-09-24T20:18:25.969Z,6.88
2022-09-24T20:21:19.228Z,6.20
2022-09-24T20:24:08.304Z,6.15
2022-09-24T20:27:06.735Z,6.38
2022-09-24T20:29:55.179Z,7.15
2022-09-24T20:32:35.287Z,5.32
2022-09-24T20:35:22.203Z,7.45
2022-09-24T20:38:02.308Z,7.60
2022-09-24T20:40:50.184Z,8.93
2022-09-24T20:43:32.166Z,7.88
2022-09-24T20:46:23.221Z,11.45
2022-09-24T20:49:13.166Z,9.93
2022-09-24T20:51:57.386Z,12.25
2022-09-24T20:54:44.094Z,8.75
2022-09-24T20:57:31.167Z,6.97
2022-09-24T21:00:14.506Z,9.45
2022-09-24T21:03:10.735Z,12.45
2022-09-24T21:06:13.147Z,5.22
2022-09-24T21:09:00.142Z,8.27
2022-09-24T21:11:48.138Z,7.90
2022-09-24T21:14:28.980Z,5.15
2022-09-24T21:17:17.104Z,6.72
2022-09-24T21:20:04.674Z,5.15
2022-09-24T21:22:45.162Z,6.45
2022-09-24T21:25:52.361Z,7.65
2022-09-24T21:28:32.145Z,7.55
2022-09-24T21:31:14.097Z,6.25
2022-09-24T21:34:03.138Z,5.18
2022-09-24T21:36:52.224Z,8.43
2022-09-24T21:39:32.209Z,6.93
2022-09-24T21:42:19.101Z,9.57
2022-09-24T21:44:59.156Z,8.13
2022-09-24T21:47:46.101Z,17.02
2022-09-24T21:50:26.764Z,12.75
2022-09-24T21:53:15.079Z,11.10
2022-09-24T21:55:55.166Z,6.05
2022-09-24T21:58:42.087Z,7.55
2022-09-24T22:01:28.325Z,4.10
2022-09-24T22:04:15.086Z,4.35
2022-09-24T22:06:55.222Z,5.70
2022-09-24T22:09:42.017Z,5.43
2022-09-24T22:12:29.043Z,4.93
2022-09-24T22:15:17.042Z,7.60
2022-09-24T22:18:04.024Z,8.32
2022-09-24T22:20:51.107Z,6.30
2022-09-24T22:23:31.174Z,5.50
2022-09-24T22:26:20.054Z,11.55
2022-09-24T22:29:08.150Z,9.25
2022-09-24T22:31:48.014Z,7.07
2022-09-24T22:34:47.218Z,6.75
2022-09-24T22:37:34.024Z,7.53
2022-09-24T22:40:22.097Z,4.97
2022-09-24T22:43:02.081Z,6.35
2022-09-24T22:45:50.040Z,5.20
2022-09-24T22:48:30.131Z,8.90
2022-09-24T22:51:16.977Z,6.43
2022-09-24T22:54:04.113Z,6.60
2022-09-24T22:56:50.994Z,5.88
2022-09-24T22:59:37.995Z,7.50
2022-09-24T23:02:24.950Z,8.30
2022-09-24T23:05:12.050Z,5.57
2022-09-24T23:07:58.984Z,6.30
2022-09-24T23:10:39.078Z,6.05
2022-09-24T23:13:25.980Z,5.15
2022-09-24T23:16:15.093Z,6.32
2022-09-24T23:19:03.980Z,5.43
2022-09-24T23:21:44.228Z,5.43
2022-09-24T23:24:30.983Z,3.65
2022-09-24T23:27:24.959Z,4.47
2022-09-24T23:30:06.031Z,9.02
2022-09-24T23:32:52.941Z,6.40
2022-09-24T23:35:33.311Z,9.15
2022-09-24T23:38:19.942Z,5.03
2022-09-24T23:41:00.790Z,8.98
2022-09-24T23:43:47.937Z,5.50
2022-09-24T23:46:34.979Z,6.40
2022-09-24T23:49:22.040Z,5.38
2022-09-24T23:52:08.956Z,8.10
2022-09-24T23:54:55.879Z,8.48
2022-09-24T23:57:36.334Z,5.38
